Terminal Aerodrome Forecast
Issued by NWS

Home | Current Version | Previous Version | Text Only | Print | Product List | Glossary On
Versions: 1 2 3 4 5 6 7 8 9 10 11 12 13 14 15 16 17 18 19 20 21 22 23 24 25 26 27
487
FTUS43 KGRR 241740
TAFAZO
TAF
KAZO 241740Z 2418/2518 12007KT 6SM -SHRA BR VCTS BKN020CB
     FM242100 24010KT 6SM -RA BR VCTS BKN020CB
     FM250100 25010KT 4SM -DZ BR OVC012
     FM251000 26014G26KT 4SM -SHSN BR OVC020=

USA.gov is the U.S. government's official web portal to all federal, state and local government web resources and services.